Nippon Maru — 3FDA7 — position and weather

sailwx.info

Track history (hours):
 
Tides and Currents Weather Stations Pressure Air Temp Water Temp Dewpoint Dewpoint Depression Visibility Wind Speed Wind Dir Waves Ship Positions

Nippon Maru

Last reported at 2016-Jun-24 04:33 UTC. Time now 2016-Jun-25 14:16 UTC.
Position N 34°44' E 139°56'.

Length 190 m; draft 9.7 m.

Type: Cargo ship. MMSI: 353814000.

Date/timePositionNaut miles runAvg speedWind from/ knotsBaromVisibWave heightAir tempDewpointWater temp
2016-Jun-24 04:33N 34°44' E 139°56'1311.4
2016-Jun-24 03:22N 34°49' E 140°11'2111.7
2016-Jun-24 01:33N 35°00' E 140°33'1211.7
2016-Jun-24 00:31N 35°09' E 140°43'1111.6
2016-Jun-23 23:32N 35°18' E 140°52'1211.4
2016-Jun-23 22:31N 35°26' E 141°02'1110.6
2016-Jun-23 21:27N 35°36' E 141°09'1010.9
2016-Jun-23 20:33N 35°45' E 141°13'  
2016-Jun-21 00:18N 36°10' E 141°57'911.9
2016-Jun-20 23:33N 36°01' E 142°01'2611.8
2016-Jun-20 21:22N 35°37' E 142°12'1112.6
2016-Jun-20 20:29N 35°26' E 142°16'2612.8
2016-Jun-20 18:29N 35°02' E 142°24'  
Track history (hours):
 
Tides and Currents Weather Stations Pressure Air Temp Water Temp Dewpoint Dewpoint Depression Visibility Wind Speed Wind Dir Waves Ship Positions

Nippon Maru

Last reported at 2016-Jun-24 04:33 UTC. Time now 2016-Jun-25 14:16 UTC.
Position N 34°44' E 139°56'.

Length 190 m; draft 9.7 m.

Type: Cargo ship. MMSI: 353814000.

Date/timePositionNaut miles runAvg speedWind from/ knotsBaromVisibWave heightAir tempDewpointWater temp
2016-Jun-24 04:33N 34°44' E 139°56'1311.4
2016-Jun-24 03:22N 34°49' E 140°11'2111.7
2016-Jun-24 01:33N 35°00' E 140°33'1211.7
2016-Jun-24 00:31N 35°09' E 140°43'1111.6
2016-Jun-23 23:32N 35°18' E 140°52'1211.4
2016-Jun-23 22:31N 35°26' E 141°02'1110.6
2016-Jun-23 21:27N 35°36' E 141°09'1010.9
2016-Jun-23 20:33N 35°45' E 141°13'  
2016-Jun-21 00:18N 36°10' E 141°57'911.9
2016-Jun-20 23:33N 36°01' E 142°01'2611.8
2016-Jun-20 21:22N 35°37' E 142°12'1112.6
2016-Jun-20 20:29N 35°26' E 142°16'2612.8
2016-Jun-20 18:29N 35°02' E 142°24'  

Dump ship's entire track history